Other Surface Observations
Issued by NWS Los Angeles, CA

Home | Current Version | Previous Version | Text Only | Print | Product List | Glossary On
Versions: 1 2 3 4
000
SXUS56 KLOX 221626
OSOLOX

OFFSHORE OIL PLATFORM IRENE WEATHER
NATIONAL WEATHER SERVICE OXNARD CA
810 AM PST MON DEC 22 2014

OBSERVATION FROM DRILLING RIG "IRENE"
LOCATION 34 DEG 37 MIN N...120 DEG 44 MIN W...30 MILES SW
OF SANTA MARIA...ANEMOMETER LOCATED 305 FEET ABOVE SEA LEVEL.

SPECI 221610Z 35022KT P6SM SKC 18/16 A3014 RMKS SEAS 4 TO 8 FEET

$$







































































































































































































































































USA.gov is the U.S. government's official web portal to all federal, state and local government web resources and services.